createdAt,value
2019-01-12T00:02:10.624Z,4.43
2019-01-12T00:04:37.737Z,3.10
2019-01-12T00:07:04.809Z,3.23
2019-01-12T00:09:31.876Z,3.50
2019-01-12T00:11:58.940Z,3.63
2019-01-12T00:14:26.024Z,2.80
2019-01-12T00:16:53.116Z,3.17
2019-01-12T00:19:20.195Z,3.67
2019-01-12T00:21:47.286Z,3.80
2019-01-12T00:24:14.357Z,3.30
2019-01-12T00:26:41.436Z,3.80
2019-01-12T00:29:08.536Z,3.70
2019-01-12T00:31:35.636Z,3.10
2019-01-12T00:34:02.733Z,3.13
2019-01-12T00:36:29.837Z,3.93
2019-01-12T00:38:56.904Z,3.50
2019-01-12T00:41:24.016Z,3.70
2019-01-12T00:43:51.105Z,4.00
2019-01-12T00:46:18.197Z,3.90
2019-01-12T00:48:45.284Z,4.53
2019-01-12T00:51:12.390Z,4.57
2019-01-12T00:53:39.465Z,3.87
2019-01-12T00:56:06.545Z,3.57
2019-01-12T00:58:33.637Z,3.97
2019-01-12T01:01:00.716Z,3.43
2019-01-12T01:03:27.831Z,3.97
2019-01-12T01:05:54.924Z,3.47
2019-01-12T01:08:22.012Z,3.50
2019-01-12T01:10:49.081Z,3.87
2019-01-12T01:13:16.177Z,4.10
2019-01-12T01:15:43.261Z,4.03
2019-01-12T01:18:10.366Z,3.63
2019-01-12T01:20:37.501Z,3.97
2019-01-12T01:23:04.583Z,4.30
2019-01-12T01:25:31.685Z,4.33
2019-01-12T01:27:58.787Z,4.00
2019-01-12T01:30:25.871Z,3.57
2019-01-12T01:32:52.942Z,3.90
2019-01-12T01:35:20.056Z,4.10
2019-01-12T01:37:47.152Z,3.87
2019-01-12T01:40:16.043Z,4.33
2019-01-12T01:42:43.132Z,4.53
2019-01-12T01:45:10.845Z,3.17
2019-01-12T01:47:37.920Z,3.60
2019-01-12T01:50:05.145Z,3.70
2019-01-12T01:52:32.232Z,3.97
2019-01-12T01:54:59.312Z,4.70
2019-01-12T01:57:26.402Z,3.80
2019-01-12T01:59:53.486Z,4.40
2019-01-12T02:02:20.596Z,3.97
2019-01-12T02:04:47.697Z,4.67
2019-01-12T02:07:14.786Z,4.20
2019-01-12T02:09:41.857Z,3.80
2019-01-12T02:12:08.945Z,3.83
2019-01-12T02:14:36.041Z,4.23
2019-01-12T02:17:03.215Z,3.83
2019-01-12T02:19:30.300Z,4.73
2019-01-12T02:21:57.361Z,3.93
2019-01-12T02:24:24.449Z,4.60
2019-01-12T02:26:51.562Z,3.57
2019-01-12T02:29:18.639Z,4.93
2019-01-12T02:31:45.735Z,4.57
2019-01-12T02:34:12.883Z,4.33
2019-01-12T02:36:39.939Z,3.67
2019-01-12T02:39:07.060Z,4.50
2019-01-12T02:41:34.159Z,4.67
2019-01-12T02:44:01.280Z,4.37
2019-01-12T02:46:28.359Z,5.03
2019-01-12T02:48:55.461Z,4.10
2019-01-12T02:51:22.554Z,4.33
2019-01-12T02:53:49.645Z,4.67
2019-01-12T02:56:16.756Z,4.47
2019-01-12T02:58:43.870Z,4.93
2019-01-12T03:01:10.989Z,5.13
2019-01-12T03:03:38.097Z,5.03
2019-01-12T03:06:05.181Z,4.90
2019-01-12T03:08:32.260Z,4.43
2019-01-12T03:10:59.354Z,5.00
2019-01-12T03:13:26.430Z,5.07
2019-01-12T03:15:53.503Z,4.70
2019-01-12T03:18:20.609Z,5.30
2019-01-12T03:20:47.703Z,5.70
2019-01-12T03:23:14.773Z,4.53
2019-01-12T03:25:41.885Z,4.37
2019-01-12T03:28:08.963Z,5.10
2019-01-12T03:30:36.736Z,4.80
2019-01-12T03:33:03.172Z,5.10
2019-01-12T03:35:30.260Z,4.87
2019-01-12T03:37:57.357Z,4.80
2019-01-12T03:40:24.451Z,4.63
2019-01-12T03:42:51.544Z,4.53
2019-01-12T03:45:19.303Z,4.13
2019-01-12T03:47:46.399Z,4.17
2019-01-12T03:50:13.510Z,4.60
2019-01-12T03:52:40.588Z,4.23
2019-01-12T03:55:07.671Z,4.73
2019-01-12T03:57:34.788Z,4.97
2019-01-12T04:00:01.893Z,4.43
2019-01-12T04:02:28.990Z,4.73
2019-01-12T04:04:56.084Z,4.10
2019-01-12T04:07:23.185Z,4.57
2019-01-12T04:09:50.277Z,4.47
2019-01-12T04:12:17.370Z,4.60
2019-01-12T04:14:44.443Z,4.20
2019-01-12T04:17:11.549Z,4.90
2019-01-12T04:19:38.653Z,4.03
2019-01-12T04:22:05.777Z,4.23
2019-01-12T04:24:32.880Z,5.07
2019-01-12T04:26:59.982Z,4.13
2019-01-12T04:29:27.066Z,4.77
2019-01-12T04:31:54.173Z,4.33
2019-01-12T04:34:21.272Z,5.17
2019-01-12T04:36:48.359Z,4.27
2019-01-12T04:39:15.432Z,4.27
2019-01-12T04:41:42.513Z,4.00
2019-01-12T04:44:09.610Z,3.83
2019-01-12T04:46:36.710Z,4.37
2019-01-12T04:49:03.789Z,4.53
2019-01-12T04:51:30.882Z,4.87
2019-01-12T04:53:57.966Z,4.63
2019-01-12T04:56:25.078Z,4.60
2019-01-12T04:58:52.170Z,4.63
2019-01-12T05:01:19.290Z,4.43
2019-01-12T05:03:46.355Z,4.80
2019-01-12T05:06:13.479Z,4.10
2019-01-12T05:08:40.571Z,4.27
2019-01-12T05:11:07.654Z,3.87
2019-01-12T05:13:34.728Z,4.03
2019-01-12T05:16:01.821Z,4.47
2019-01-12T05:18:28.913Z,3.83
2019-01-12T05:20:56.049Z,3.73
2019-01-12T05:23:23.129Z,4.70
2019-01-12T05:25:50.240Z,3.87
2019-01-12T05:28:17.335Z,4.13
2019-01-12T05:30:44.441Z,4.00
2019-01-12T05:33:11.525Z,3.87
2019-01-12T05:35:38.575Z,4.17
2019-01-12T05:38:05.691Z,4.50
2019-01-12T05:40:32.773Z,5.03
2019-01-12T05:42:59.872Z,4.53
2019-01-12T05:45:26.980Z,4.93
2019-01-12T05:47:54.088Z,4.03
2019-01-12T05:50:21.198Z,4.03
2019-01-12T05:52:48.271Z,4.90
2019-01-12T05:55:15.358Z,4.60
2019-01-12T05:57:42.439Z,4.10
2019-01-12T06:00:13.836Z,3.57
2019-01-12T06:02:40.922Z,4.20
2019-01-12T06:05:08.037Z,4.07
2019-01-12T06:07:35.116Z,5.13
2019-01-12T06:10:02.269Z,4.57
2019-01-12T06:12:29.368Z,4.10
2019-01-12T06:14:56.452Z,4.20
2019-01-12T06:17:23.561Z,3.70
2019-01-12T06:19:50.669Z,4.03
2019-01-12T06:22:17.768Z,4.03
2019-01-12T06:24:44.860Z,3.93
2019-01-12T06:27:11.965Z,4.00
2019-01-12T06:29:39.060Z,4.33
2019-01-12T06:32:06.153Z,3.70
2019-01-12T06:34:33.270Z,3.93
2019-01-12T06:37:00.366Z,4.37
2019-01-12T06:39:27.464Z,4.20
2019-01-12T06:41:54.582Z,4.30
2019-01-12T06:44:21.705Z,4.13
2019-01-12T06:46:48.813Z,4.73
2019-01-12T06:49:15.913Z,3.50
2019-01-12T06:51:43.021Z,4.40
2019-01-12T06:54:10.097Z,4.23
2019-01-12T06:56:37.195Z,5.00
2019-01-12T06:59:04.305Z,4.73
2019-01-12T07:01:31.377Z,3.70
2019-01-12T07:03:58.489Z,4.27
2019-01-12T07:06:25.577Z,4.27
2019-01-12T07:08:52.686Z,3.83
2019-01-12T07:11:19.783Z,3.77
2019-01-12T07:13:46.846Z,4.03
2019-01-12T07:16:13.960Z,3.73
2019-01-12T07:18:41.048Z,4.00
2019-01-12T07:21:08.172Z,4.00
2019-01-12T07:23:35.282Z,3.17
2019-01-12T07:26:02.381Z,4.60
2019-01-12T07:28:29.473Z,4.03
2019-01-12T07:30:56.584Z,3.43
2019-01-12T07:33:23.717Z,3.40
2019-01-12T07:35:51.424Z,3.73
2019-01-12T07:38:18.551Z,3.90
2019-01-12T07:40:45.632Z,3.97
2019-01-12T07:43:12.718Z,3.37
2019-01-12T07:45:39.804Z,3.93
2019-01-12T07:48:06.876Z,3.23
2019-01-12T07:50:33.964Z,3.27
2019-01-12T07:53:01.048Z,3.80
2019-01-12T07:55:28.136Z,3.77
2019-01-12T07:57:55.213Z,3.23
2019-01-12T08:00:22.453Z,3.30
2019-01-12T08:02:49.548Z,3.17
2019-01-12T08:05:16.656Z,3.20
2019-01-12T08:07:43.749Z,3.53
2019-01-12T08:10:13.048Z,3.93
2019-01-12T08:12:40.128Z,3.43
2019-01-12T08:15:07.244Z,3.20
2019-01-12T08:17:34.321Z,3.53
2019-01-12T08:20:01.423Z,3.57
2019-01-12T08:22:28.501Z,3.73
2019-01-12T08:24:55.605Z,3.40
2019-01-12T08:27:22.664Z,3.50
2019-01-12T08:29:49.747Z,3.30
2019-01-12T08:32:16.824Z,3.43
2019-01-12T08:34:43.924Z,4.03
2019-01-12T08:37:11.016Z,3.67
2019-01-12T08:39:38.109Z,3.63
2019-01-12T08:42:05.200Z,3.50
2019-01-12T08:44:32.286Z,3.57
2019-01-12T08:46:59.385Z,3.03
2019-01-12T08:49:26.490Z,3.07
2019-01-12T08:51:53.577Z,3.83
2019-01-12T08:54:20.726Z,3.23
2019-01-12T08:56:47.787Z,3.43
2019-01-12T08:59:14.869Z,3.20
2019-01-12T09:01:41.968Z,3.50
2019-01-12T09:04:09.046Z,2.93
2019-01-12T09:06:36.146Z,3.30
2019-01-12T09:09:06.138Z,3.30
2019-01-12T09:11:33.221Z,3.30
2019-01-12T09:14:00.313Z,3.23
2019-01-12T09:16:27.414Z,3.33
2019-01-12T09:18:54.492Z,2.90
2019-01-12T09:21:21.596Z,3.30
2019-01-12T09:23:48.681Z,2.57
2019-01-12T09:26:15.744Z,2.97
2019-01-12T09:28:42.837Z,3.10
2019-01-12T09:31:09.949Z,2.47
2019-01-12T09:33:37.037Z,2.97
2019-01-12T09:36:04.141Z,3.33
2019-01-12T09:38:31.228Z,3.20
2019-01-12T09:40:58.319Z,2.70
2019-01-12T09:43:25.421Z,2.83
2019-01-12T09:45:52.505Z,2.67
2019-01-12T09:48:19.574Z,3.03
2019-01-12T09:50:46.664Z,3.30
2019-01-12T09:53:13.748Z,3.03
2019-01-12T09:55:40.878Z,3.00
2019-01-12T09:58:07.952Z,2.87
2019-01-12T10:00:35.013Z,2.97
2019-01-12T10:03:02.102Z,3.40
2019-01-12T10:05:29.194Z,2.70
2019-01-12T10:07:56.285Z,3.37
2019-01-12T10:10:23.375Z,3.40
2019-01-12T10:12:50.452Z,2.27
2019-01-12T10:15:17.578Z,3.10
2019-01-12T10:17:44.660Z,2.90
2019-01-12T10:20:13.992Z,3.17
2019-01-12T10:22:41.084Z,2.83
2019-01-12T10:25:08.284Z,2.43
2019-01-12T10:27:35.405Z,2.73
2019-01-12T10:30:02.762Z,2.43
2019-01-12T10:32:29.867Z,2.23
2019-01-12T10:34:56.950Z,2.40
2019-01-12T10:37:24.027Z,2.73
2019-01-12T10:39:51.132Z,2.00
2019-01-12T10:42:18.253Z,2.20
2019-01-12T10:44:45.373Z,2.00
2019-01-12T10:47:12.448Z,2.13
2019-01-12T10:49:39.565Z,2.27
2019-01-12T10:52:06.673Z,2.47
2019-01-12T10:54:33.784Z,2.30
2019-01-12T10:57:05.403Z,2.07
2019-01-12T10:59:27.969Z,2.07
2019-01-12T11:01:55.032Z,2.30
2019-01-12T11:04:22.124Z,1.83
2019-01-12T11:06:49.220Z,2.80
2019-01-12T11:09:16.333Z,1.60
2019-01-12T11:11:43.413Z,2.07
2019-01-12T11:14:10.503Z,1.90
2019-01-12T11:16:37.568Z,1.43
2019-01-12T11:19:04.680Z,1.83
2019-01-12T11:21:31.760Z,1.73
2019-01-12T11:23:58.854Z,1.77
2019-01-12T11:26:25.925Z,1.30
2019-01-12T11:28:53.005Z,1.67
2019-01-12T11:31:20.144Z,1.43
2019-01-12T11:33:47.249Z,1.53
2019-01-12T11:36:14.336Z,1.30
2019-01-12T11:38:41.436Z,1.70
2019-01-12T11:41:10.017Z,1.40
2019-01-12T11:43:35.666Z,1.27
2019-01-12T11:46:02.757Z,1.30
2019-01-12T11:48:29.856Z,1.73
2019-01-12T11:51:05.849Z,1.23
2019-01-12T11:53:33.228Z,1.33
2019-01-12T11:56:00.327Z,1.33
2019-01-12T11:58:27.415Z,1.30
2019-01-12T12:00:54.496Z,1.63
2019-01-12T12:03:21.583Z,1.37
2019-01-12T12:05:48.665Z,1.47
2019-01-12T12:08:15.751Z,1.50
2019-01-12T12:10:42.847Z,1.27
2019-01-12T12:13:09.941Z,1.20
2019-01-12T12:15:37.068Z,1.10
2019-01-12T12:18:04.173Z,1.10
2019-01-12T12:20:31.265Z,1.33
2019-01-12T12:22:58.365Z,1.17
2019-01-12T12:25:25.453Z,1.33
2019-01-12T12:27:52.552Z,1.40
2019-01-12T12:30:22.781Z,1.70
2019-01-12T12:32:49.887Z,1.20
2019-01-12T12:35:16.988Z,0.90
2019-01-12T12:37:44.075Z,1.07
2019-01-12T12:40:12.031Z,1.00
2019-01-12T12:42:39.097Z,0.93
2019-01-12T12:45:09.805Z,1.30
2019-01-12T12:47:36.892Z,1.03
2019-01-12T12:50:06.382Z,1.10
2019-01-12T12:52:33.447Z,0.83
2019-01-12T12:55:00.548Z,0.70
2019-01-12T12:57:32.891Z,0.90
2019-01-12T12:59:54.754Z,0.87
2019-01-12T13:02:21.836Z,0.93
2019-01-12T13:04:48.914Z,0.80
2019-01-12T13:07:15.973Z,1.00
2019-01-12T13:09:43.104Z,0.77
2019-01-12T13:12:10.216Z,1.00
2019-01-12T13:14:37.299Z,1.30
2019-01-12T13:17:04.405Z,1.13
2019-01-12T13:19:31.532Z,0.80
2019-01-12T13:21:58.624Z,1.00
2019-01-12T13:24:25.761Z,0.87
2019-01-12T13:26:52.862Z,0.70
2019-01-12T13:29:19.968Z,0.70
2019-01-12T13:31:47.088Z,0.70
2019-01-12T13:34:14.181Z,1.17
2019-01-12T13:36:41.267Z,0.70
2019-01-12T13:39:08.373Z,0.90
2019-01-12T13:41:35.475Z,1.00
2019-01-12T13:44:02.703Z,0.80
2019-01-12T13:46:29.829Z,0.70
2019-01-12T13:48:56.929Z,1.07
2019-01-12T13:51:24.056Z,0.70
2019-01-12T13:53:51.148Z,0.83
2019-01-12T13:56:18.276Z,0.70
2019-01-12T13:58:45.382Z,0.90
2019-01-12T14:01:12.485Z,0.90
2019-01-12T14:03:39.625Z,0.90
2019-01-12T14:06:06.729Z,1.00
2019-01-12T14:08:33.810Z,0.97
2019-01-12T14:11:00.896Z,0.87
2019-01-12T14:13:27.955Z,1.10
2019-01-12T14:15:55.044Z,0.70
2019-01-12T14:18:22.704Z,0.60
2019-01-12T14:20:50.094Z,1.23
2019-01-12T14:23:17.199Z,0.80
2019-01-12T14:25:44.293Z,0.80
2019-01-12T14:28:11.401Z,0.80
2019-01-12T14:30:38.490Z,0.83
2019-01-12T14:33:05.560Z,1.00
2019-01-12T14:35:32.685Z,0.90
2019-01-12T14:37:59.785Z,1.00
2019-01-12T14:40:26.972Z,0.90
2019-01-12T14:42:54.067Z,0.70
2019-01-12T14:45:25.235Z,1.17
2019-01-12T14:47:52.366Z,0.80
2019-01-12T14:50:19.457Z,0.90
2019-01-12T14:52:46.572Z,1.10
2019-01-12T14:55:14.133Z,0.93
2019-01-12T14:57:41.232Z,0.90
2019-01-12T15:00:12.144Z,1.20
2019-01-12T15:02:39.253Z,1.30
2019-01-12T15:05:08.144Z,1.20
2019-01-12T15:07:35.268Z,1.40
2019-01-12T15:10:02.417Z,1.20
2019-01-12T15:12:29.526Z,1.13
2019-01-12T15:14:56.625Z,1.00
2019-01-12T15:17:23.709Z,1.00
2019-01-12T15:19:50.829Z,1.00
2019-01-12T15:22:17.982Z,1.20
2019-01-12T15:24:45.059Z,1.10
2019-01-12T15:27:12.140Z,1.20
2019-01-12T15:29:39.234Z,0.87
2019-01-12T15:32:06.342Z,1.10
2019-01-12T15:34:33.453Z,1.00
2019-01-12T15:37:00.555Z,1.00
2019-01-12T15:39:27.696Z,0.83
2019-01-12T15:41:54.799Z,0.90
2019-01-12T15:44:21.890Z,1.07
2019-01-12T15:46:51.814Z,1.70
2019-01-12T15:49:18.979Z,0.97
2019-01-12T15:51:46.096Z,1.10
2019-01-12T15:54:13.199Z,1.03
2019-01-12T15:56:40.326Z,1.23
2019-01-12T15:59:07.434Z,1.10
2019-01-12T16:01:34.548Z,1.00
2019-01-12T16:04:01.648Z,1.10
2019-01-12T16:06:28.759Z,0.80
2019-01-12T16:08:55.852Z,1.07
2019-01-12T16:11:22.946Z,1.20
2019-01-12T16:13:50.024Z,1.27
2019-01-12T16:16:17.121Z,1.00
2019-01-12T16:18:44.247Z,0.80
2019-01-12T16:21:11.355Z,1.00
2019-01-12T16:23:38.437Z,1.03
2019-01-12T16:26:05.538Z,1.17
2019-01-12T16:28:32.637Z,1.23
2019-01-12T16:30:59.768Z,1.03
2019-01-12T16:33:26.856Z,1.10
2019-01-12T16:35:53.943Z,1.10
2019-01-12T16:38:21.040Z,1.30
2019-01-12T16:40:48.309Z,1.23
2019-01-12T16:43:15.425Z,1.10
2019-01-12T16:45:42.532Z,0.87
2019-01-12T16:48:09.648Z,1.07
2019-01-12T16:50:36.733Z,1.47
2019-01-12T16:53:03.804Z,1.27
2019-01-12T16:55:30.884Z,1.10
2019-01-12T16:57:57.996Z,1.30
2019-01-12T17:00:27.118Z,1.30
2019-01-12T17:02:54.215Z,1.17
2019-01-12T17:05:21.341Z,1.17
2019-01-12T17:07:48.457Z,1.10
2019-01-12T17:10:16.820Z,1.30
2019-01-12T17:12:43.873Z,1.10
2019-01-12T17:15:12.272Z,1.00
2019-01-12T17:17:39.346Z,1.17
2019-01-12T17:20:08.481Z,1.27
2019-01-12T17:22:35.577Z,1.93
2019-01-12T17:25:02.687Z,1.07
2019-01-12T17:27:29.808Z,1.00
2019-01-12T17:29:56.915Z,1.30
2019-01-12T17:32:23.976Z,1.17
2019-01-12T17:34:51.122Z,1.47
2019-01-12T17:37:19.001Z,1.30
2019-01-12T17:39:45.340Z,1.17
2019-01-12T17:42:12.430Z,1.00
2019-01-12T17:44:39.530Z,1.40
2019-01-12T17:47:06.637Z,1.07
2019-01-12T17:49:33.718Z,1.00
2019-01-12T17:52:00.827Z,1.23
2019-01-12T17:54:27.912Z,1.00
2019-01-12T17:56:54.984Z,1.30
2019-01-12T17:59:22.076Z,1.50
2019-01-12T18:01:49.172Z,1.07
2019-01-12T18:04:16.261Z,1.30
2019-01-12T18:06:43.367Z,1.70
2019-01-12T18:09:10.469Z,1.40
2019-01-12T18:11:37.574Z,1.87
2019-01-12T18:14:04.668Z,1.70
2019-01-12T18:16:31.772Z,1.50
2019-01-12T18:18:58.867Z,1.70
2019-01-12T18:21:25.949Z,1.67
2019-01-12T18:23:53.069Z,1.90
2019-01-12T18:26:20.147Z,1.80
2019-01-12T18:28:51.495Z,1.63
2019-01-12T18:31:14.337Z,1.70
2019-01-12T18:33:41.440Z,1.50
2019-01-12T18:36:08.533Z,1.83
2019-01-12T18:38:35.627Z,1.97
2019-01-12T18:41:02.723Z,1.60
2019-01-12T18:43:29.855Z,1.63
2019-01-12T18:45:56.968Z,1.60
2019-01-12T18:48:24.050Z,1.37
2019-01-12T18:50:51.164Z,1.40
2019-01-12T18:53:18.288Z,1.67
2019-01-12T18:55:45.372Z,1.60
2019-01-12T18:58:12.466Z,1.67
2019-01-12T19:00:39.604Z,1.67
2019-01-12T19:03:06.698Z,1.80
2019-01-12T19:05:33.810Z,1.60
2019-01-12T19:08:00.906Z,1.53
2019-01-12T19:10:27.992Z,1.50
2019-01-12T19:12:55.084Z,1.57
2019-01-12T19:15:24.341Z,1.70
2019-01-12T19:17:51.452Z,1.60
2019-01-12T19:20:18.545Z,1.60
2019-01-12T19:22:45.666Z,1.40
2019-01-12T19:25:12.816Z,1.73
2019-01-12T19:27:39.918Z,1.40
2019-01-12T19:30:10.263Z,1.50
2019-01-12T19:32:37.362Z,1.47
2019-01-12T19:35:04.625Z,1.73
2019-01-12T19:37:31.710Z,1.60
2019-01-12T19:39:58.829Z,1.40
2019-01-12T19:42:25.917Z,1.47
2019-01-12T19:44:53.012Z,1.70
2019-01-12T19:47:20.095Z,1.40
2019-01-12T19:49:47.177Z,1.47
2019-01-12T19:52:14.267Z,1.60
2019-01-12T19:54:41.394Z,1.70
2019-01-12T19:57:08.483Z,1.70
2019-01-12T19:59:35.604Z,1.70
2019-01-12T20:02:03.383Z,1.87
2019-01-12T20:04:30.498Z,1.60
2019-01-12T20:06:57.564Z,1.77
2019-01-12T20:09:24.648Z,1.83
2019-01-12T20:11:51.746Z,1.43
2019-01-12T20:14:18.830Z,1.33
2019-01-12T20:16:45.899Z,1.67
2019-01-12T20:19:12.999Z,1.40
2019-01-12T20:21:40.082Z,1.20
2019-01-12T20:24:07.200Z,1.67
2019-01-12T20:26:34.280Z,1.40
2019-01-12T20:29:01.368Z,1.40
2019-01-12T20:31:44.336Z,1.40
2019-01-12T20:34:20.034Z,1.07
2019-01-12T20:36:57.539Z,1.47
2019-01-12T20:40:36.450Z,1.60
2019-01-12T20:43:18.542Z,1.27
2019-01-12T20:46:12.960Z,1.57
2019-01-12T20:48:58.724Z,1.27
2019-01-12T20:51:44.824Z,1.40
2019-01-12T20:54:23.713Z,1.17
2019-01-12T20:57:05.222Z,1.03
2019-01-12T20:59:50.081Z,1.53
2019-01-12T21:02:33.048Z,1.40
2019-01-12T21:05:11.660Z,1.27
2019-01-12T21:08:22.817Z,1.43
2019-01-12T21:11:03.261Z,1.20
2019-01-12T21:14:41.736Z,1.13
2019-01-12T21:17:10.319Z,1.30
2019-01-12T21:19:37.450Z,1.10
2019-01-12T21:22:04.583Z,1.63
2019-01-12T21:24:31.708Z,1.23
2019-01-12T21:26:58.809Z,1.30
2019-01-12T21:29:25.920Z,1.40
2019-01-12T21:31:53.000Z,1.30
2019-01-12T21:34:20.108Z,1.43
2019-01-12T21:36:47.208Z,1.40
2019-01-12T21:39:14.292Z,1.20
2019-01-12T21:41:41.406Z,1.43
2019-01-12T21:44:08.505Z,1.20
2019-01-12T21:46:35.596Z,1.30
2019-01-12T21:49:02.719Z,1.20
2019-01-12T21:51:29.837Z,1.37
2019-01-12T21:53:56.919Z,1.50
2019-01-12T21:56:24.497Z,0.93
2019-01-12T21:58:51.595Z,1.10
2019-01-12T22:01:18.674Z,1.37
2019-01-12T22:03:45.804Z,1.10
2019-01-12T22:06:12.876Z,0.93
2019-01-12T22:08:39.941Z,1.37
2019-01-12T22:11:07.011Z,1.20
2019-01-12T22:13:34.117Z,1.40
2019-01-12T22:16:01.209Z,1.10
2019-01-12T22:18:28.309Z,1.43
2019-01-12T22:20:55.459Z,1.10
2019-01-12T22:23:22.562Z,1.03
2019-01-12T22:25:49.697Z,1.27
2019-01-12T22:28:16.800Z,0.90
2019-01-12T22:30:43.871Z,1.33
2019-01-12T22:33:10.992Z,1.20
2019-01-12T22:35:38.124Z,1.60
2019-01-12T22:38:05.216Z,1.10
2019-01-12T22:40:32.354Z,0.90
2019-01-12T22:42:59.701Z,0.90
2019-01-12T22:45:26.784Z,1.07
2019-01-12T22:47:53.861Z,1.30
2019-01-12T22:50:20.974Z,0.90
2019-01-12T22:52:48.061Z,1.30
2019-01-12T22:55:15.697Z,1.00
2019-01-12T22:57:42.843Z,0.90
2019-01-12T23:00:21.229Z,0.87
2019-01-12T23:02:48.333Z,1.00
2019-01-12T23:05:15.438Z,1.30
2019-01-12T23:07:42.557Z,0.97
2019-01-12T23:10:09.821Z,1.10
2019-01-12T23:12:36.925Z,1.10
2019-01-12T23:15:04.473Z,1.10
2019-01-12T23:17:31.565Z,1.00
2019-01-12T23:19:58.659Z,1.10
2019-01-12T23:22:25.745Z,1.00
2019-01-12T23:24:52.841Z,1.17
2019-01-12T23:27:19.960Z,1.00
2019-01-12T23:29:47.064Z,1.00
2019-01-12T23:32:14.175Z,0.90
2019-01-12T23:34:41.268Z,1.17
2019-01-12T23:37:08.380Z,1.03
2019-01-12T23:39:35.473Z,0.80
2019-01-12T23:42:02.558Z,1.10
2019-01-12T23:44:29.624Z,1.27
2019-01-12T23:46:56.728Z,1.20
2019-01-12T23:49:23.840Z,0.80
2019-01-12T23:51:50.917Z,0.90
2019-01-12T23:54:18.016Z,0.83
2019-01-12T23:56:45.100Z,1.00
2019-01-12T23:59:12.185Z,1.10
